Time;durP1;ratioP1;P1;durP2;ratioP2;P2;SDS_P1;SDS_P2;PMS_P1;PMS_P2;Temp;Humidity;BMP_temperature;BMP_pressure;BME280_temperature;BME280_humidity;BME280_pressure;Samples;Min_cycle;Max_cycle;Signal;HPM_P1;HPM_P2
2021/01/15 00:02:42;;;;;;;10.80;9.77;;;3.70;97.90;;;;;;10330289;28;20243;-86
2021/01/15 00:07:45;;;;;;;10.70;9.70;;;3.70;98.40;;;;;;10304164;28;20206;-86
2021/01/15 00:12:47;;;;;;;10.57;9.40;;;3.60;98.10;;;;;;10347842;28;20683;-86
2021/01/15 00:17:49;;;;;;;10.43;9.43;;;3.60;98.10;;;;;;10316754;28;20683;-86
2021/01/15 00:22:51;;;;;;;10.77;9.30;;;3.50;98.70;;;;;;10326899;28;20227;-86
2021/01/15 00:27:53;;;;;;;8.80;8.00;;;3.60;98.30;;;;;;10299592;28;20285;-86
2021/01/15 00:32:55;;;;;;;9.50;8.60;;;3.60;97.90;;;;;;10312324;28;20227;-86
2021/01/15 00:37:57;;;;;;;12.73;9.40;;;3.50;98.60;;;;;;10312939;28;20676;-86
2021/01/15 00:42:59;;;;;;;9.23;8.30;;;3.60;98.30;;;;;;10313977;28;20578;-86
2021/01/15 00:48:01;;;;;;;8.10;7.33;;;3.60;97.80;;;;;;10311821;28;20214;-86
2021/01/15 00:53:04;;;;;;;8.40;7.60;;;3.60;98.60;;;;;;10332157;28;20234;-86
2021/01/15 00:58:06;;;;;;;10.53;7.97;;;3.60;97.80;;;;;;10315801;28;20298;-86
2021/01/15 01:03:09;;;;;;;7.60;6.97;;;3.50;97.30;;;;;;10307049;28;20295;-86
2021/01/15 01:08:11;;;;;;;7.47;6.73;;;3.50;98.50;;;;;;10313824;28;20215;-85
2021/01/15 01:13:14;;;;;;;6.23;5.60;;;3.60;98.80;;;;;;10319821;28;20262;-86
2021/01/15 01:18:16;;;;;;;6.30;5.70;;;3.50;98.20;;;;;;10301845;28;20234;-86
2021/01/15 01:23:18;;;;;;;5.97;5.40;;;3.50;97.40;;;;;;10319370;28;20219;-85
2021/01/15 01:28:20;;;;;;;8.33;6.60;;;3.50;98.10;;;;;;10309281;28;20234;-84
2021/01/15 01:33:25;;;;;;;5.87;5.27;;;3.50;98.40;;;;;;10340322;28;20583;-86
2021/01/15 01:38:27;;;;;;;5.47;5.07;;;3.60;98.10;;;;;;10324233;28;20315;-86
2021/01/15 01:43:29;;;;;;;5.43;5.03;;;3.60;98.20;;;;;;10288621;28;20547;-86
2021/01/15 01:48:31;;;;;;;5.73;5.10;;;3.50;98.10;;;;;;10279658;28;20220;-86
2021/01/15 01:53:37;;;;;;;4.43;4.13;;;3.50;97.80;;;;;;10324280;28;20218;-87
2021/01/15 01:58:39;;;;;;;4.70;4.07;;;3.50;97.40;;;;;;10329690;28;20228;-85
2021/01/15 02:03:41;;;;;;;4.63;4.20;;;3.40;97.60;;;;;;10290652;28;20193;-86
2021/01/15 02:08:44;;;;;;;4.57;4.20;;;3.40;97.60;;;;;;10321157;28;20219;-85
2021/01/15 02:13:58;;;;;;;6.00;3.67;;;3.30;98.00;;;;;;10307618;28;20208;-86
2021/01/15 02:19:09;;;;;;;5.33;4.40;;;3.30;97.70;;;;;;10294573;28;20239;-85
2021/01/15 02:24:28;;;;;;;4.13;3.83;;;3.20;96.90;;;;;;10328054;28;20210;-86
2021/01/15 02:29:31;;;;;;;4.50;4.10;;;3.20;97.70;;;;;;10317687;28;20261;-86
2021/01/15 02:34:40;;;;;;;5.73;4.33;;;3.20;97.70;;;;;;10342023;28;20710;-86
2021/01/15 02:39:53;;;;;;;5.60;4.20;;;3.10;97.60;;;;;;10334585;28;20207;-86
2021/01/15 02:44:56;;;;;;;4.37;3.80;;;3.10;97.90;;;;;;10333609;28;20207;-87
2021/01/15 02:50:00;;;;;;;4.50;4.10;;;3.10;97.90;;;;;;10335358;28;20349;-85
2021/01/15 02:55:03;;;;;;;4.60;4.23;;;3.10;97.70;;;;;;10301412;28;20217;-86
2021/01/15 03:00:07;;;;;;;4.20;3.80;;;3.10;98.00;;;;;;10318018;28;20232;-86
2021/01/15 03:05:14;;;;;;;4.10;3.80;;;3.00;97.50;;;;;;10319631;28;20199;-85
2021/01/15 03:10:19;;;;;;;4.40;4.10;;;3.00;97.80;;;;;;10335193;28;20219;-86
2021/01/15 03:15:23;;;;;;;4.00;3.70;;;3.00;97.90;;;;;;10310141;28;20697;-86
2021/01/15 03:20:27;;;;;;;5.20;4.70;;;2.90;97.80;;;;;;10292724;28;20239;-85
2021/01/15 03:25:29;;;;;;;4.93;4.40;;;2.80;98.00;;;;;;10308572;28;20321;-84
2021/01/15 03:30:31;;;;;;;4.87;4.47;;;2.80;97.90;;;;;;10315468;28;20298;-86
2021/01/15 03:35:34;;;;;;;4.57;4.17;;;2.80;97.90;;;;;;10333261;28;20199;-85
2021/01/15 03:40:38;;;;;;;4.50;4.13;;;2.70;97.90;;;;;;10354987;28;20223;-87
2021/01/15 03:45:40;;;;;;;4.33;3.93;;;2.70;97.90;;;;;;10331508;28;20659;-85
2021/01/15 03:50:43;;;;;;;4.97;4.50;;;2.70;97.50;;;;;;10317365;28;20223;-86
2021/01/15 03:55:46;;;;;;;5.13;4.33;;;2.70;96.90;;;;;;10324490;28;20206;-86
2021/01/15 04:00:48;;;;;;;4.03;3.73;;;2.70;97.10;;;;;;10314823;28;20229;-85
2021/01/15 04:05:50;;;;;;;4.63;4.23;;;2.60;97.40;;;;;;10330679;28;20195;-86
2021/01/15 04:10:52;;;;;;;7.57;4.30;;;2.60;97.10;;;;;;10330767;28;20234;-85
2021/01/15 04:15:54;;;;;;;4.17;3.77;;;2.60;97.50;;;;;;10299099;28;20665;-87
2021/01/15 04:20:57;;;;;;;4.50;4.10;;;2.50;98.10;;;;;;10314356;28;20285;-86
2021/01/15 04:25:58;;;;;;;5.40;4.90;;;2.50;97.80;;;;;;10293323;28;20215;-85
2021/01/15 04:31:00;;;;;;;5.87;4.93;;;2.40;97.40;;;;;;10290805;28;20226;-86
2021/01/15 04:36:06;;;;;;;4.93;4.53;;;2.50;97.40;;;;;;10273738;28;20683;-85
2021/01/15 04:41:08;;;;;;;4.87;4.47;;;2.30;97.60;;;;;;10263668;28;20296;-86
2021/01/15 04:46:10;;;;;;;4.63;4.23;;;2.30;97.30;;;;;;10290391;28;20199;-86
2021/01/15 04:51:19;;;;;;;4.33;4.03;;;2.20;97.60;;;;;;10274050;28;20278;-86
2021/01/15 04:56:30;;;;;;;5.17;4.77;;;2.10;97.20;;;;;;10257349;28;20227;-85
2021/01/15 05:01:39;;;;;;;4.70;4.30;;;2.00;97.30;;;;;;10312755;23;20235;-81
2021/01/15 05:06:46;;;;;;;5.60;5.10;;;1.90;97.20;;;;;;10332138;28;20198;-81
2021/01/15 05:11:49;;;;;;;5.40;4.90;;;1.90;97.10;;;;;;10381713;28;20218;-81
2021/01/15 05:16:51;;;;;;;6.57;5.47;;;1.80;97.10;;;;;;10399877;28;20202;-81
2021/01/15 05:21:54;;;;;;;6.27;4.77;;;1.80;97.30;;;;;;10378319;28;20231;-81
2021/01/15 05:26:55;;;;;;;6.53;6.03;;;1.70;97.20;;;;;;10377753;28;20260;-81
2021/01/15 05:31:59;;;;;;;6.10;5.50;;;1.70;97.80;;;;;;10398069;28;20337;-81
2021/01/15 05:37:02;;;;;;;7.43;5.67;;;1.60;97.50;;;;;;10380472;28;20244;-81
2021/01/15 05:42:04;;;;;;;6.20;5.60;;;1.60;98.10;;;;;;10390418;28;20300;-81
2021/01/15 05:47:05;;;;;;;7.07;5.63;;;1.60;97.50;;;;;;10366297;28;20198;-81
2021/01/15 05:52:08;;;;;;;6.87;6.27;;;1.60;97.50;;;;;;10377399;28;20218;-81
2021/01/15 05:57:25;;;;;;;5.70;5.20;;;1.50;98.20;;;;;;10366091;28;20297;-81
2021/01/15 06:02:27;;;;;;;6.50;5.90;;;1.50;98.40;;;;;;10351324;28;20293;-81
2021/01/15 06:07:29;;;;;;;6.37;5.73;;;1.50;98.40;;;;;;10372202;28;20314;-82
2021/01/15 06:12:41;;;;;;;6.10;5.30;;;1.50;97.50;;;;;;10354382;28;20213;-80
2021/01/15 06:17:46;;;;;;;6.80;5.80;;;1.50;97.80;;;;;;10354919;28;20222;-82
2021/01/15 06:22:51;;;;;;;7.70;5.83;;;1.50;97.80;;;;;;10358771;28;20222;-82
2021/01/15 06:27:55;;;;;;;6.47;5.90;;;1.50;98.10;;;;;;10335788;28;20551;-82
2021/01/15 06:33:08;;;;;;;7.77;7.07;;;1.50;98.10;;;;;;10341105;28;20727;-82
2021/01/15 06:38:12;;;;;;;7.10;6.43;;;1.40;98.00;;;;;;10332245;28;20229;-81
2021/01/15 06:43:22;;;;;;;7.20;6.20;;;1.40;97.90;;;;;;10342278;28;20213;-82
2021/01/15 06:48:27;;;;;;;6.77;6.07;;;1.40;97.90;;;;;;10329016;28;20270;-82
2021/01/15 06:53:30;;;;;;;6.43;5.83;;;1.30;97.90;;;;;;10349172;28;20227;-82
2021/01/15 06:58:38;;;;;;;6.67;6.07;;;1.30;98.10;;;;;;10359804;28;20552;-82
2021/01/15 07:04:24;;;;;;;6.80;6.20;;;1.30;98.30;;;;;;10371742;28;20203;-81
2021/01/15 07:09:28;;;;;;;7.23;6.50;;;1.30;97.90;;;;;;10390114;28;20705;-81
2021/01/15 07:14:30;;;;;;;5.30;4.90;;;1.20;97.90;;;;;;10379954;28;20206;-82
2021/01/15 07:19:35;;;;;;;7.80;7.07;;;1.20;98.20;;;;;;10374422;28;20256;-82
2021/01/15 07:24:39;;;;;;;6.50;5.90;;;1.10;97.70;;;;;;10374062;28;20317;-81
2021/01/15 07:29:47;;;;;;;7.27;6.57;;;1.10;97.80;;;;;;10352548;28;20725;-81
2021/01/15 07:34:54;;;;;;;8.00;7.30;;;1.10;97.70;;;;;;10357302;28;20206;-81
2021/01/15 07:40:05;;;;;;;7.67;6.67;;;1.10;98.00;;;;;;10383343;28;20316;-81
2021/01/15 07:45:08;;;;;;;8.53;7.00;;;1.10;98.10;;;;;;10376767;28;20202;-82
2021/01/15 07:50:11;;;;;;;8.70;8.00;;;1.10;98.20;;;;;;10361059;28;20344;-82
2021/01/15 07:55:14;;;;;;;8.67;7.87;;;1.20;98.40;;;;;;10377492;28;20428;-82
2021/01/15 08:00:25;;;;;;;9.60;8.80;;;1.20;98.30;;;;;;10384620;28;20296;-82
2021/01/15 08:05:27;;;;;;;10.90;8.30;;;1.30;98.70;;;;;;10379344;28;20233;-82
2021/01/15 08:10:29;;;;;;;9.10;8.20;;;1.30;98.70;;;;;;10397440;28;20330;-82
2021/01/15 08:15:32;;;;;;;10.00;9.00;;;1.40;98.80;;;;;;10377716;28;20301;-82
2021/01/15 08:20:35;;;;;;;10.33;8.90;;;1.50;98.50;;;;;;10380649;28;20557;-82
2021/01/15 08:25:37;;;;;;;11.10;10.00;;;1.60;98.60;;;;;;10400782;28;20240;-82
2021/01/15 08:30:39;;;;;;;9.60;8.70;;;1.70;98.10;;;;;;10363497;28;20360;-82
2021/01/15 08:35:41;;;;;;;10.77;9.67;;;1.70;96.70;;;;;;10375781;28;20606;-81
2021/01/15 08:40:43;;;;;;;11.17;10.00;;;1.80;97.30;;;;;;10396907;28;20276;-81
2021/01/15 08:45:47;;;;;;;10.00;9.10;;;1.80;96.70;;;;;;10373660;28;20206;-82
2021/01/15 08:50:49;;;;;;;10.37;9.33;;;1.90;97.30;;;;;;10383449;28;20674;-82
2021/01/15 08:55:55;;;;;;;11.40;10.30;;;1.90;97.30;;;;;;10390716;28;20202;-82
2021/01/15 09:00:57;;;;;;;11.10;9.50;;;1.90;97.10;;;;;;10355898;28;20233;-82
2021/01/15 09:06:02;;;;;;;10.60;9.60;;;1.90;97.00;;;;;;10372691;28;20225;-82
2021/01/15 09:11:05;;;;;;;10.20;9.20;;;2.00;97.20;;;;;;10358646;28;20230;-81
2021/01/15 09:16:16;;;;;;;14.10;10.70;;;2.10;97.20;;;;;;10361591;28;20872;-81
2021/01/15 09:21:17;;;;;;;10.67;9.57;;;2.20;97.50;;;;;;10344471;28;20219;-81
2021/01/15 09:26:20;;;;;;;11.30;10.20;;;2.30;97.40;;;;;;10361440;28;20713;-82
2021/01/15 09:31:22;;;;;;;11.27;10.10;;;2.30;97.20;;;;;;10405476;28;20275;-81
2021/01/15 09:36:25;;;;;;;12.00;10.70;;;2.40;96.30;;;;;;10388456;28;20313;-81
2021/01/15 09:41:27;;;;;;;11.70;10.57;;;2.40;96.50;;;;;;10373322;28;20249;-81
2021/01/15 09:46:30;;;;;;;11.83;10.63;;;2.40;95.20;;;;;;10376971;28;20663;-82
2021/01/15 09:51:32;;;;;;;14.23;8.27;;;2.40;96.00;;;;;;10390024;28;20206;-82
2021/01/15 09:56:40;;;;;;;10.80;9.63;;;2.50;96.40;;;;;;10365329;28;20203;-82
2021/01/15 10:01:43;;;;;;;11.33;9.90;;;2.50;96.50;;;;;;10364914;28;20225;-82
2021/01/15 10:06:45;;;;;;;13.17;11.10;;;2.50;95.80;;;;;;10364592;28;20244;-82
2021/01/15 10:11:49;;;;;;;12.60;10.33;;;2.40;94.60;;;;;;10387863;28;20222;-82
2021/01/15 10:16:50;;;;;;;11.40;10.30;;;2.30;94.40;;;;;;10379303;28;20569;-82
2021/01/15 10:21:52;;;;;;;13.20;11.50;;;2.30;95.20;;;;;;10365304;28;20257;-82
2021/01/15 10:26:55;;;;;;;12.83;11.63;;;2.30;95.80;;;;;;10390729;28;20224;-82
2021/01/15 10:31:57;;;;;;;14.13;11.90;;;2.40;96.40;;;;;;10414807;28;20226;-82
2021/01/15 10:36:59;;;;;;;12.07;10.77;;;2.50;96.90;;;;;;10374334;28;20198;-82
2021/01/15 10:42:02;;;;;;;12.03;10.83;;;2.50;96.70;;;;;;10362202;28;20318;-82
2021/01/15 10:47:04;;;;;;;12.10;10.80;;;2.60;96.00;;;;;;10369378;28;20203;-82
2021/01/15 10:52:07;;;;;;;13.33;12.03;;;2.60;95.70;;;;;;10350919;28;20301;-82
2021/01/15 10:57:09;;;;;;;13.43;11.47;;;2.60;96.40;;;;;;10349346;28;20269;-82
2021/01/15 11:02:11;;;;;;;13.00;11.60;;;2.60;96.30;;;;;;10347893;28;20226;-82
2021/01/15 11:07:13;;;;;;;12.10;10.97;;;2.70;95.80;;;;;;10353025;28;20199;-82
2021/01/15 11:12:15;;;;;;;13.70;11.63;;;2.70;96.20;;;;;;10365987;28;20227;-82
2021/01/15 11:17:17;;;;;;;13.20;11.80;;;2.80;95.80;;;;;;10351884;28;20628;-82
2021/01/15 11:22:19;;;;;;;14.87;12.30;;;2.80;96.00;;;;;;10367160;28;20241;-82
2021/01/15 11:27:21;;;;;;;13.10;11.70;;;2.80;96.00;;;;;;10364789;28;20258;-82
2021/01/15 11:32:23;;;;;;;13.20;11.80;;;2.80;95.90;;;;;;10340611;28;20226;-82
2021/01/15 11:37:24;;;;;;;13.33;11.90;;;2.90;95.90;;;;;;10373625;28;20232;-82
2021/01/15 11:42:27;;;;;;;12.43;11.10;;;2.90;95.80;;;;;;10350576;28;20242;-82
2021/01/15 11:47:28;;;;;;;13.33;11.93;;;3.00;96.00;;;;;;10353226;28;20332;-82
2021/01/15 11:52:30;;;;;;;13.33;12.03;;;3.00;95.30;;;;;;10374721;28;20230;-82
2021/01/15 11:57:33;;;;;;;14.13;12.73;;;3.00;94.40;;;;;;10336339;28;20216;-82
2021/01/15 12:02:34;;;;;;;14.23;12.00;;;3.00;94.40;;;;;;10370562;28;20233;-82
2021/01/15 12:07:36;;;;;;;14.10;12.60;;;3.10;94.90;;;;;;10354458;28;20232;-82
2021/01/15 12:12:39;;;;;;;14.53;13.03;;;3.10;95.10;;;;;;10360126;28;20328;-82
2021/01/15 12:17:41;;;;;;;14.83;10.77;;;3.20;95.40;;;;;;10373766;28;20703;-82
2021/01/15 12:22:44;;;;;;;13.57;12.27;;;3.20;95.40;;;;;;10361933;28;20287;-82
2021/01/15 12:27:47;;;;;;;11.63;10.43;;;3.30;95.10;;;;;;10348861;28;20202;-82
2021/01/15 12:32:50;;;;;;;11.50;10.27;;;3.20;94.70;;;;;;10355537;28;20500;-82
2021/01/15 12:37:51;;;;;;;13.57;12.20;;;3.30;94.70;;;;;;10391865;28;20198;-82
2021/01/15 12:42:54;;;;;;;11.90;10.70;;;3.30;94.20;;;;;;10369317;28;20643;-82
2021/01/15 12:47:56;;;;;;;11.57;10.47;;;3.40;93.30;;;;;;10333443;28;20206;-82
2021/01/15 12:52:58;;;;;;;12.10;11.00;;;3.40;94.80;;;;;;10369187;28;20226;-82
2021/01/15 12:58:01;;;;;;;10.77;9.70;;;3.40;94.20;;;;;;10370694;28;20206;-81
2021/01/15 13:03:04;;;;;;;11.30;10.20;;;3.40;93.00;;;;;;10352490;28;20564;-81
2021/01/15 13:08:06;;;;;;;10.63;9.50;;;3.50;93.10;;;;;;10353518;28;20230;-82
2021/01/15 13:13:09;;;;;;;11.00;9.90;;;3.40;93.70;;;;;;10353233;28;20215;-81
2021/01/15 13:18:10;;;;;;;11.80;10.60;;;3.50;94.10;;;;;;10356854;28;20701;-81
2021/01/15 13:23:12;;;;;;;12.47;10.77;;;3.60;93.80;;;;;;10338305;28;20199;-80
2021/01/15 13:28:15;;;;;;;12.50;10.70;;;3.70;94.50;;;;;;10325938;28;20339;-80
2021/01/15 13:33:18;;;;;;;14.37;12.03;;;3.70;94.30;;;;;;10378850;28;20690;-80
2021/01/15 13:38:19;;;;;;;12.90;11.60;;;3.80;94.50;;;;;;10344320;28;20294;-80
2021/01/15 13:43:22;;;;;;;14.27;12.77;;;3.80;94.30;;;;;;10332432;28;20545;-80
2021/01/15 13:48:23;;;;;;;15.10;12.67;;;3.80;94.80;;;;;;10359494;28;20222;-80
2021/01/15 13:53:26;;;;;;;14.43;12.93;;;3.90;94.80;;;;;;10370916;28;20252;-80
2021/01/15 13:58:29;;;;;;;13.73;12.33;;;4.00;94.60;;;;;;10369231;28;20254;-80
2021/01/15 14:03:31;;;;;;;15.40;13.43;;;3.90;94.70;;;;;;10338594;28;20199;-81
2021/01/15 14:08:33;;;;;;;16.50;13.20;;;3.90;94.90;;;;;;10357600;28;20217;-80
2021/01/15 14:13:35;;;;;;;13.93;12.53;;;3.90;94.90;;;;;;10343988;28;20218;-80
2021/01/15 14:18:37;;;;;;;13.90;12.40;;;3.90;95.50;;;;;;10367811;28;20378;-80
2021/01/15 14:23:39;;;;;;;14.00;11.80;;;3.90;95.50;;;;;;10350127;28;20222;-80
2021/01/15 14:28:41;;;;;;;13.80;12.40;;;3.90;95.60;;;;;;10368185;28;20751;-81
2021/01/15 14:33:44;;;;;;;14.53;13.00;;;3.90;95.30;;;;;;10363663;28;20250;-81
2021/01/15 14:38:46;;;;;;;12.83;11.60;;;3.90;95.10;;;;;;10374156;28;20238;-80
2021/01/15 14:43:49;;;;;;;13.07;10.87;;;3.80;94.90;;;;;;10374077;28;20203;-80
2021/01/15 14:48:50;;;;;;;13.57;12.27;;;3.80;94.30;;;;;;10361291;28;20214;-81
2021/01/15 14:53:52;;;;;;;13.57;11.70;;;3.70;94.10;;;;;;10376917;28;20226;-80
2021/01/15 14:58:55;;;;;;;13.50;11.30;;;3.70;94.60;;;;;;10377973;28;20245;-80
2021/01/15 15:03:56;;;;;;;14.50;10.80;;;3.70;95.10;;;;;;10375328;28;20191;-80
2021/01/15 15:08:58;;;;;;;12.63;11.30;;;3.70;94.70;;;;;;10349150;28;20226;-79
2021/01/15 15:14:01;;;;;;;11.13;10.03;;;3.70;94.40;;;;;;10324669;28;20238;-80
2021/01/15 15:19:04;;;;;;;11.80;10.30;;;3.70;95.00;;;;;;10359036;28;20222;-80
2021/01/15 15:24:07;;;;;;;9.70;8.80;;;3.70;94.80;;;;;;10360663;28;20198;-80
2021/01/15 15:29:11;;;;;;;10.83;9.73;;;3.70;95.20;;;;;;10372123;28;20599;-79
2021/01/15 15:34:12;;;;;;;10.27;9.20;;;3.70;94.90;;;;;;10374116;28;20226;-80
2021/01/15 15:39:14;;;;;;;9.70;8.80;;;3.60;94.40;;;;;;10331875;28;20222;-80
2021/01/15 15:44:16;;;;;;;10.00;8.97;;;3.60;94.50;;;;;;10381002;28;20206;-80
2021/01/15 15:49:18;;;;;;;10.10;9.03;;;3.50;94.50;;;;;;10356147;28;20493;-80
2021/01/15 15:54:20;;;;;;;9.70;8.80;;;3.50;94.80;;;;;;10363460;28;20234;-80
2021/01/15 15:59:22;;;;;;;10.53;9.20;;;3.50;95.30;;;;;;10379182;28;20222;-78
2021/01/15 16:04:24;;;;;;;10.53;9.23;;;3.60;95.20;;;;;;10391233;28;20626;-80
2021/01/15 16:09:25;;;;;;;8.87;7.97;;;3.60;95.00;;;;;;10373698;28;20238;-80
2021/01/15 16:14:30;;;;;;;10.43;9.53;;;3.60;95.30;;;;;;10388125;28;20225;-80
2021/01/15 16:19:32;;;;;;;11.40;10.37;;;3.60;95.60;;;;;;10364033;28;20226;-80
2021/01/15 16:24:33;;;;;;;11.37;10.30;;;3.70;95.80;;;;;;10381093;28;20254;-80
2021/01/15 16:29:36;;;;;;;11.57;9.33;;;3.70;96.30;;;;;;10375074;28;20234;-80
2021/01/15 16:34:37;;;;;;;9.90;8.93;;;3.80;95.70;;;;;;10394467;28;20222;-80
2021/01/15 16:39:39;;;;;;;10.23;9.20;;;3.80;96.00;;;;;;10355286;28;20311;-80
2021/01/15 16:44:45;;;;;;;9.90;8.90;;;3.80;96.40;;;;;;10334387;28;20222;-80
2021/01/15 16:49:47;;;;;;;10.33;9.17;;;3.80;96.60;;;;;;10329658;28;20256;-79
2021/01/15 16:54:48;;;;;;;10.73;9.70;;;3.90;97.00;;;;;;10341369;28;20343;-79
2021/01/15 16:59:58;;;;;;;11.17;9.17;;;3.90;96.80;;;;;;10404544;23;20334;-85
2021/01/15 17:05:07;;;;;;;10.60;8.93;;;4.00;96.70;;;;;;10363231;28;20214;-85
2021/01/15 17:10:10;;;;;;;10.30;9.30;;;4.00;96.10;;;;;;10352808;28;20218;-84
2021/01/15 17:15:13;;;;;;;10.27;9.17;;;4.00;96.20;;;;;;10345994;28;20643;-84
2021/01/15 17:20:15;;;;;;;8.77;7.87;;;4.10;96.10;;;;;;10344723;28;20313;-85
2021/01/15 17:25:18;;;;;;;9.63;8.70;;;4.10;95.70;;;;;;10347801;28;20229;-84
2021/01/15 17:30:22;;;;;;;8.30;7.60;;;4.10;95.70;;;;;;10367708;28;20308;-87
2021/01/15 17:35:25;;;;;;;7.43;6.73;;;4.10;95.50;;;;;;10355604;28;20226;-87
2021/01/15 17:40:29;;;;;;;7.27;6.63;;;4.10;95.60;;;;;;10347752;28;20230;-84
2021/01/15 17:45:33;;;;;;;7.73;6.93;;;4.10;96.10;;;;;;10349403;28;20214;-84
2021/01/15 17:50:35;;;;;;;8.07;7.27;;;4.10;95.80;;;;;;10371437;28;20226;-85
2021/01/15 17:55:40;;;;;;;7.30;6.60;;;4.10;95.90;;;;;;10364167;28;20199;-84
2021/01/15 18:00:43;;;;;;;8.70;7.83;;;4.10;96.10;;;;;;10339862;28;20231;-84
2021/01/15 18:05:44;;;;;;;8.23;7.47;;;4.10;96.00;;;;;;10329801;28;20599;-86
2021/01/15 18:10:46;;;;;;;9.43;8.27;;;4.10;95.70;;;;;;10311268;28;20766;-85
2021/01/15 18:15:49;;;;;;;8.63;7.83;;;4.00;96.00;;;;;;10293306;28;20671;-85
2021/01/15 18:20:50;;;;;;;8.77;7.93;;;4.00;96.00;;;;;;10316577;28;20227;-83
2021/01/15 18:25:53;;;;;;;9.33;8.40;;;3.90;96.10;;;;;;10320181;28;20250;-81
2021/01/15 18:30:59;;;;;;;8.90;7.97;;;3.90;97.00;;;;;;10294594;28;20630;-85
2021/01/15 18:36:02;;;;;;;9.23;8.37;;;3.90;96.80;;;;;;10307323;28;20730;-83
2021/01/15 18:41:04;;;;;;;8.63;7.80;;;3.90;96.90;;;;;;10311744;28;20223;-84
2021/01/15 18:46:07;;;;;;;8.50;7.70;;;3.80;97.50;;;;;;10297307;28;20219;-85
2021/01/15 18:51:09;;;;;;;9.13;7.73;;;3.90;97.80;;;;;;10324555;28;20230;-86
2021/01/15 18:56:12;;;;;;;9.50;7.77;;;3.80;97.30;;;;;;10299652;28;20234;-85
2021/01/15 19:01:15;;;;;;;9.13;8.23;;;3.80;97.60;;;;;;10326984;28;20230;-85
2021/01/15 19:06:17;;;;;;;7.70;7.00;;;3.80;97.80;;;;;;10350414;28;20213;-84
2021/01/15 19:11:25;;;;;;;8.23;7.53;;;3.80;97.50;;;;;;10345099;28;20246;-85
2021/01/15 19:16:38;;;;;;;9.37;8.47;;;3.70;97.20;;;;;;10350915;28;20209;-84
2021/01/15 19:21:43;;;;;;;9.70;8.77;;;3.70;97.50;;;;;;10329865;28;20222;-85
2021/01/15 19:26:54;;;;;;;9.20;8.30;;;3.70;97.70;;;;;;10332013;28;20298;-86
2021/01/15 19:31:57;;;;;;;9.70;7.97;;;3.70;97.50;;;;;;10339260;28;20530;-84
2021/01/15 19:37:13;;;;;;;11.33;10.23;;;3.70;98.20;;;;;;10342397;28;20226;-84
2021/01/15 19:42:23;;;;;;;10.57;9.47;;;3.70;98.00;;;;;;10365123;28;20673;-85
2021/01/15 19:47:25;;;;;;;9.30;8.40;;;3.70;97.90;;;;;;10336911;28;20207;-85
2021/01/15 19:52:36;;;;;;;12.50;9.90;;;3.70;97.60;;;;;;10367856;28;20234;-86
2021/01/15 19:57:45;;;;;;;9.83;8.93;;;3.70;97.90;;;;;;10344510;28;20686;-84
2021/01/15 20:02:48;;;;;;;9.60;8.47;;;3.70;97.90;;;;;;10344957;28;20717;-84
2021/01/15 20:07:49;;;;;;;56.63;39.00;;;3.70;97.50;;;;;;10349263;28;20217;-85
2021/01/15 20:12:51;;;;;;;11.77;9.70;;;3.70;96.90;;;;;;10362716;28;20620;-85
2021/01/15 20:18:09;;;;;;;9.43;8.53;;;3.60;97.90;;;;;;10351030;28;20229;-84
2021/01/15 20:23:14;;;;;;;9.60;8.60;;;3.70;98.40;;;;;;10353960;28;20226;-85
2021/01/15 20:28:22;;;;;;;9.97;8.97;;;3.70;98.20;;;;;;10359219;28;20236;-83
2021/01/15 20:33:25;;;;;;;10.43;9.43;;;3.70;97.90;;;;;;10371942;28;20672;-85
2021/01/15 20:38:35;;;;;;;9.63;8.70;;;3.70;97.50;;;;;;10365714;28;20238;-86
2021/01/15 20:49:36;;;;;;;10.60;9.50;;;3.70;98.40;;;;;;10362793;28;20238;-86
2021/01/15 20:54:50;;;;;;;9.70;8.70;;;3.70;98.60;;;;;;10340531;28;20293;-85
2021/01/15 21:00:00;;;;;;;10.40;8.90;;;3.70;98.40;;;;;;10355278;28;20299;-86
2021/01/15 21:05:47;;;;;;;10.60;9.50;;;3.70;98.30;;;;;;10328171;28;20199;-86
2021/01/15 21:23:53;;;;;;;13.17;11.77;;;3.70;98.60;;;;;;10328092;28;20229;-85
2021/01/15 21:47:41;;;;;;;13.47;12.10;;;3.60;99.40;;;;;;10333494;28;20209;-84
2021/01/15 21:53:47;;;;;;;13.57;12.17;;;3.70;99.60;;;;;;10335233;28;20234;-86
2021/01/15 22:10:49;;;;;;;14.97;13.37;;;3.70;99.40;;;;;;10359691;28;20369;-85
2021/01/15 22:16:12;;;;;;;15.03;13.07;;;3.60;99.20;;;;;;10338302;28;20210;-86
2021/01/15 22:21:27;;;;;;;13.97;12.43;;;3.70;99.30;;;;;;10360188;28;20230;-87
2021/01/15 22:26:37;;;;;;;15.20;13.60;;;3.60;99.00;;;;;;10317434;28;20301;-85
2021/01/15 22:31:50;;;;;;;15.13;13.53;;;3.60;99.30;;;;;;10340946;28;20219;-85
2021/01/15 22:37:08;;;;;;;14.73;13.10;;;3.70;99.50;;;;;;10328089;28;20202;-85
2021/01/15 23:07:47;;;;;;;15.50;12.77;;;3.60;99.10;;;;;;10229386;28;20200;-87
2021/01/15 23:19:52;;;;;;;13.90;12.50;;;3.60;99.40;;;;;;10331577;28;20227;-85
2021/01/15 23:25:49;;;;;;;13.90;12.50;;;3.60;99.10;;;;;;10332666;28;20298;-84
